sensor_id;sensor_type;location;lat;lon;timestamp;temperature;humidity
14031;DHT22;7090;49.436;8.490;2023-07-20T00:01:23;20.10;99.90
14031;DHT22;7090;49.436;8.490;2023-07-20T00:03:48;20.10;99.90
14031;DHT22;7090;49.436;8.490;2023-07-20T00:06:23;20.00;99.90
14031;DHT22;7090;49.436;8.490;2023-07-20T00:08:53;20.00;1.00
14031;DHT22;7090;49.436;8.490;2023-07-20T00:11:19;20.00;99.90
14031;DHT22;7090;49.436;8.490;2023-07-20T00:13:45;20.10;99.90
14031;DHT22;7090;49.436;8.490;2023-07-20T00:16:11;20.00;99.90
14031;DHT22;7090;49.436;8.490;2023-07-20T00:18:36;20.10;99.90
14031;DHT22;7090;49.436;8.490;2023-07-20T00:21:02;20.10;1.00
14031;DHT22;7090;49.436;8.490;2023-07-20T00:23:27;20.00;55.40
14031;DHT22;7090;49.436;8.490;2023-07-20T00:25:53;20.00;1.00
14031;DHT22;7090;49.436;8.490;2023-07-20T00:28:19;19.80;99.90
14031;DHT22;7090;49.436;8.490;2023-07-20T00:30:45;19.80;99.90
14031;DHT22;7090;49.436;8.490;2023-07-20T00:33:11;19.70;99.90
14031;DHT22;7090;49.436;8.490;2023-07-20T00:35:39;19.70;99.90
14031;DHT22;7090;49.436;8.490;2023-07-20T00:38:05;19.60;99.90
14031;DHT22;7090;49.436;8.490;2023-07-20T00:40:40;19.60;99.90
14031;DHT22;7090;49.436;8.490;2023-07-20T00:43:06;19.50;99.90
14031;DHT22;7090;49.436;8.490;2023-07-20T00:45:33;19.40;1.00
14031;DHT22;7090;49.436;8.490;2023-07-20T00:48:01;19.40;99.90
14031;DHT22;7090;49.436;8.490;2023-07-20T00:50:28;19.40;99.90
14031;DHT22;7090;49.436;8.490;2023-07-20T00:52:57;19.30;1.00
14031;DHT22;7090;49.436;8.490;2023-07-20T00:55:24;19.20;1.00
14031;DHT22;7090;49.436;8.490;2023-07-20T00:57:50;19.10;1.00
14031;DHT22;7090;49.436;8.490;2023-07-20T01:00:17;19.00;1.00
14031;DHT22;7090;49.436;8.490;2023-07-20T01:02:43;18.80;42.00
14031;DHT22;7090;49.436;8.490;2023-07-20T01:05:09;18.90;1.00
14031;DHT22;7090;49.436;8.490;2023-07-20T01:07:38;18.90;1.00
14031;DHT22;7090;49.436;8.490;2023-07-20T01:12:46;18.70;1.00
14031;DHT22;7090;49.436;8.490;2023-07-20T01:15:13;18.70;1.00
14031;DHT22;7090;49.436;8.490;2023-07-20T01:17:38;18.60;66.00
14031;DHT22;7090;49.436;8.490;2023-07-20T01:20:08;18.60;99.90
14031;DHT22;7090;49.436;8.490;2023-07-20T01:31:14;18.10;1.00
14031;DHT22;7090;49.436;8.490;2023-07-20T01:33:42;18.10;1.00
14031;DHT22;7090;49.436;8.490;2023-07-20T01:36:08;18.00;1.00
14031;DHT22;7090;49.436;8.490;2023-07-20T01:38:36;17.90;1.00
14031;DHT22;7090;49.436;8.490;2023-07-20T01:41:02;17.80;1.00
14031;DHT22;7090;49.436;8.490;2023-07-20T01:43:28;17.70;79.80
14031;DHT22;7090;49.436;8.490;2023-07-20T01:45:53;17.60;99.90
14031;DHT22;7090;49.436;8.490;2023-07-20T01:48:19;17.60;1.00
14031;DHT22;7090;49.436;8.490;2023-07-20T01:50:45;17.50;1.00
14031;DHT22;7090;49.436;8.490;2023-07-20T01:53:11;17.40;1.00
14031;DHT22;7090;49.436;8.490;2023-07-20T01:55:36;17.30;76.30
14031;DHT22;7090;49.436;8.490;2023-07-20T01:58:02;17.20;1.00
14031;DHT22;7090;49.436;8.490;2023-07-20T02:00:29;17.10;1.00
14031;DHT22;7090;49.436;8.490;2023-07-20T02:02:54;17.10;44.90
14031;DHT22;7090;49.436;8.490;2023-07-20T02:05:20;17.10;1.00
14031;DHT22;7090;49.436;8.490;2023-07-20T02:07:45;17.00;16.00
14031;DHT22;7090;49.436;8.490;2023-07-20T02:10:11;17.00;22.30
14031;DHT22;7090;49.436;8.490;2023-07-20T02:12:36;17.00;1.00
14031;DHT22;7090;49.436;8.490;2023-07-20T02:15:03;17.00;31.60
14031;DHT22;7090;49.436;8.490;2023-07-20T02:17:28;17.00;99.90
14031;DHT22;7090;49.436;8.490;2023-07-20T02:19:55;17.00;99.90
14031;DHT22;7090;49.436;8.490;2023-07-20T02:22:21;17.00;99.90
14031;DHT22;7090;49.436;8.490;2023-07-20T02:24:47;16.90;1.00
14031;DHT22;7090;49.436;8.490;2023-07-20T02:27:12;16.90;1.00
14031;DHT22;7090;49.436;8.490;2023-07-20T02:29:40;16.80;1.00
14031;DHT22;7090;49.436;8.490;2023-07-20T02:32:06;16.80;1.00
14031;DHT22;7090;49.436;8.490;2023-07-20T02:34:32;16.70;1.00
14031;DHT22;7090;49.436;8.490;2023-07-20T02:36:57;16.80;1.00
14031;DHT22;7090;49.436;8.490;2023-07-20T02:39:24;16.80;1.00
14031;DHT22;7090;49.436;8.490;2023-07-20T02:41:49;16.80;1.00
14031;DHT22;7090;49.436;8.490;2023-07-20T02:44:15;16.80;1.00
14031;DHT22;7090;49.436;8.490;2023-07-20T02:46:41;16.80;1.00
14031;DHT22;7090;49.436;8.490;2023-07-20T02:49:07;16.70;1.00
14031;DHT22;7090;49.436;8.490;2023-07-20T02:51:32;16.60;1.00
14031;DHT22;7090;49.436;8.490;2023-07-20T02:53:58;16.60;1.00
14031;DHT22;7090;49.436;8.490;2023-07-20T02:56:24;16.80;2.20
14031;DHT22;7090;49.436;8.490;2023-07-20T02:58:50;16.70;1.00
14031;DHT22;7090;49.436;8.490;2023-07-20T03:01:15;16.60;33.90
14031;DHT22;7090;49.436;8.490;2023-07-20T03:03:42;16.50;5.10
14031;DHT22;7090;49.436;8.490;2023-07-20T03:06:12;16.50;95.00
14031;DHT22;7090;49.436;8.490;2023-07-20T03:08:38;16.50;99.90
14031;DHT22;7090;49.436;8.490;2023-07-20T03:11:03;16.50;99.90
14031;DHT22;7090;49.436;8.490;2023-07-20T03:13:29;16.50;99.90
14031;DHT22;7090;49.436;8.490;2023-07-20T03:15:55;16.40;99.90
14031;DHT22;7090;49.436;8.490;2023-07-20T03:18:20;16.40;99.90
14031;DHT22;7090;49.436;8.490;2023-07-20T03:20:46;16.40;99.90
14031;DHT22;7090;49.436;8.490;2023-07-20T03:23:11;16.30;99.90
14031;DHT22;7090;49.436;8.490;2023-07-20T03:25:37;16.20;99.90
14031;DHT22;7090;49.436;8.490;2023-07-20T03:28:04;16.20;99.90
14031;DHT22;7090;49.436;8.490;2023-07-20T03:30:29;16.10;99.90
14031;DHT22;7090;49.436;8.490;2023-07-20T03:32:55;16.00;99.90
14031;DHT22;7090;49.436;8.490;2023-07-20T03:35:20;16.40;99.90
14031;DHT22;7090;49.436;8.490;2023-07-20T03:37:46;16.90;99.90
14031;DHT22;7090;49.436;8.490;2023-07-20T03:40:11;17.50;1.00
14031;DHT22;7090;49.436;8.490;2023-07-20T03:42:37;17.70;1.00
14031;DHT22;7090;49.436;8.490;2023-07-20T03:45:04;17.90;1.00
14031;DHT22;7090;49.436;8.490;2023-07-20T03:47:31;18.00;99.90
14031;DHT22;7090;49.436;8.490;2023-07-20T03:49:57;18.20;99.90
14031;DHT22;7090;49.436;8.490;2023-07-20T03:52:23;18.20;99.90
14031;DHT22;7090;49.436;8.490;2023-07-20T03:54:49;18.00;99.90
14031;DHT22;7090;49.436;8.490;2023-07-20T03:57:16;17.70;99.90
14031;DHT22;7090;49.436;8.490;2023-07-20T03:59:45;17.40;1.00
14031;DHT22;7090;49.436;8.490;2023-07-20T04:02:11;17.10;1.00
14031;DHT22;7090;49.436;8.490;2023-07-20T04:04:37;17.20;1.00
14031;DHT22;7090;49.436;8.490;2023-07-20T04:07:03;17.20;1.00
14031;DHT22;7090;49.436;8.490;2023-07-20T04:09:29;17.20;1.00
14031;DHT22;7090;49.436;8.490;2023-07-20T04:11:55;17.20;1.00
14031;DHT22;7090;49.436;8.490;2023-07-20T04:14:21;17.20;1.00
14031;DHT22;7090;49.436;8.490;2023-07-20T04:16:47;17.20;1.00
14031;DHT22;7090;49.436;8.490;2023-07-20T04:19:13;17.30;1.00
14031;DHT22;7090;49.436;8.490;2023-07-20T04:21:41;17.30;1.00
14031;DHT22;7090;49.436;8.490;2023-07-20T04:24:07;17.30;1.00
14031;DHT22;7090;49.436;8.490;2023-07-20T04:26:33;17.50;1.00
14031;DHT22;7090;49.436;8.490;2023-07-20T04:28:58;17.60;1.00
14031;DHT22;7090;49.436;8.490;2023-07-20T04:31:24;17.70;1.00
14031;DHT22;7090;49.436;8.490;2023-07-20T04:33:50;17.60;1.00
14031;DHT22;7090;49.436;8.490;2023-07-20T04:36:16;17.80;1.00
14031;DHT22;7090;49.436;8.490;2023-07-20T04:38:45;17.80;1.00
14031;DHT22;7090;49.436;8.490;2023-07-20T04:41:11;17.80;1.00
14031;DHT22;7090;49.436;8.490;2023-07-20T04:43:43;18.20;1.00
14031;DHT22;7090;49.436;8.490;2023-07-20T04:46:12;18.40;99.90
14031;DHT22;7090;49.436;8.490;2023-07-20T04:48:38;18.70;99.90
14031;DHT22;7090;49.436;8.490;2023-07-20T04:51:03;18.90;99.90
14031;DHT22;7090;49.436;8.490;2023-07-20T04:53:29;18.90;59.00
14031;DHT22;7090;49.436;8.490;2023-07-20T04:55:56;19.00;1.00
14031;DHT22;7090;49.436;8.490;2023-07-20T04:58:22;18.70;50.00
14031;DHT22;7090;49.436;8.490;2023-07-20T05:00:49;18.40;99.90
14031;DHT22;7090;49.436;8.490;2023-07-20T05:03:15;18.30;99.90
14031;DHT22;7090;49.436;8.490;2023-07-20T05:05:40;18.50;99.90
14031;DHT22;7090;49.436;8.490;2023-07-20T05:08:06;18.20;99.90
14031;DHT22;7090;49.436;8.490;2023-07-20T05:10:32;18.00;99.90
14031;DHT22;7090;49.436;8.490;2023-07-20T05:12:58;17.90;1.00
14031;DHT22;7090;49.436;8.490;2023-07-20T05:15:24;18.20;1.00
14031;DHT22;7090;49.436;8.490;2023-07-20T05:17:49;18.10;1.00
14031;DHT22;7090;49.436;8.490;2023-07-20T05:20:15;18.10;1.00
14031;DHT22;7090;49.436;8.490;2023-07-20T05:22:42;18.10;1.00
14031;DHT22;7090;49.436;8.490;2023-07-20T05:25:08;18.20;1.00
14031;DHT22;7090;49.436;8.490;2023-07-20T05:27:39;18.40;1.00
14031;DHT22;7090;49.436;8.490;2023-07-20T05:30:05;18.60;1.00
14031;DHT22;7090;49.436;8.490;2023-07-20T05:32:32;19.00;1.00
14031;DHT22;7090;49.436;8.490;2023-07-20T05:34:58;19.40;1.00
14031;DHT22;7090;49.436;8.490;2023-07-20T05:37:24;20.20;1.00
14031;DHT22;7090;49.436;8.490;2023-07-20T05:39:49;20.30;1.00
14031;DHT22;7090;49.436;8.490;2023-07-20T05:42:15;20.30;1.00
14031;DHT22;7090;49.436;8.490;2023-07-20T05:44:41;19.60;1.00
14031;DHT22;7090;49.436;8.490;2023-07-20T05:47:07;19.10;1.00
14031;DHT22;7090;49.436;8.490;2023-07-20T05:49:33;18.70;1.00
14031;DHT22;7090;49.436;8.490;2023-07-20T05:51:59;18.60;1.00
14031;DHT22;7090;49.436;8.490;2023-07-20T05:54:27;18.60;1.00
14031;DHT22;7090;49.436;8.490;2023-07-20T05:56:53;18.70;1.00
14031;DHT22;7090;49.436;8.490;2023-07-20T05:59:18;18.50;1.00
14031;DHT22;7090;49.436;8.490;2023-07-20T06:01:45;18.60;1.00
14031;DHT22;7090;49.436;8.490;2023-07-20T06:04:11;18.70;1.00
14031;DHT22;7090;49.436;8.490;2023-07-20T06:06:36;18.90;1.00
14031;DHT22;7090;49.436;8.490;2023-07-20T06:09:02;19.40;1.00
14031;DHT22;7090;49.436;8.490;2023-07-20T06:11:33;19.60;1.00
14031;DHT22;7090;49.436;8.490;2023-07-20T06:13:58;20.10;1.00
14031;DHT22;7090;49.436;8.490;2023-07-20T06:16:24;20.50;1.00
14031;DHT22;7090;49.436;8.490;2023-07-20T06:18:49;20.70;1.00
14031;DHT22;7090;49.436;8.490;2023-07-20T06:21:15;21.00;1.00
14031;DHT22;7090;49.436;8.490;2023-07-20T06:23:41;20.70;1.00
14031;DHT22;7090;49.436;8.490;2023-07-20T06:26:07;20.50;1.00
14031;DHT22;7090;49.436;8.490;2023-07-20T06:28:33;20.40;1.00
14031;DHT22;7090;49.436;8.490;2023-07-20T06:31:03;20.20;1.00
14031;DHT22;7090;49.436;8.490;2023-07-20T06:33:29;20.10;1.00
14031;DHT22;7090;49.436;8.490;2023-07-20T06:35:54;20.50;1.00
14031;DHT22;7090;49.436;8.490;2023-07-20T06:38:22;20.40;1.00
14031;DHT22;7090;49.436;8.490;2023-07-20T06:40:49;20.50;1.00
14031;DHT22;7090;49.436;8.490;2023-07-20T06:43:15;20.20;1.00
14031;DHT22;7090;49.436;8.490;2023-07-20T06:45:41;20.20;1.00
14031;DHT22;7090;49.436;8.490;2023-07-20T06:48:07;21.20;1.00
14031;DHT22;7090;49.436;8.490;2023-07-20T06:50:33;22.30;1.00
14031;DHT22;7090;49.436;8.490;2023-07-20T06:52:59;22.00;1.00
14031;DHT22;7090;49.436;8.490;2023-07-20T06:55:25;22.20;1.00
14031;DHT22;7090;49.436;8.490;2023-07-20T06:57:51;22.50;1.00
14031;DHT22;7090;49.436;8.490;2023-07-20T07:00:17;22.90;1.00
14031;DHT22;7090;49.436;8.490;2023-07-20T07:02:43;23.30;1.00
14031;DHT22;7090;49.436;8.490;2023-07-20T07:05:09;23.30;1.00
14031;DHT22;7090;49.436;8.490;2023-07-20T07:07:34;23.10;1.00
14031;DHT22;7090;49.436;8.490;2023-07-20T07:10:01;22.90;1.00
14031;DHT22;7090;49.436;8.490;2023-07-20T07:12:26;22.40;1.00
14031;DHT22;7090;49.436;8.490;2023-07-20T07:14:52;22.30;1.00
14031;DHT22;7090;49.436;8.490;2023-07-20T07:17:19;23.00;1.00
14031;DHT22;7090;49.436;8.490;2023-07-20T07:19:44;23.40;1.00
14031;DHT22;7090;49.436;8.490;2023-07-20T07:22:10;23.90;1.00
14031;DHT22;7090;49.436;8.490;2023-07-20T07:24:37;24.00;1.00
14031;DHT22;7090;49.436;8.490;2023-07-20T07:27:02;23.50;1.00
14031;DHT22;7090;49.436;8.490;2023-07-20T07:29:29;23.30;1.00
14031;DHT22;7090;49.436;8.490;2023-07-20T07:31:55;24.20;1.00
14031;DHT22;7090;49.436;8.490;2023-07-20T07:34:20;24.50;1.00
14031;DHT22;7090;49.436;8.490;2023-07-20T07:36:46;23.80;1.00
14031;DHT22;7090;49.436;8.490;2023-07-20T07:39:12;23.70;1.00
14031;DHT22;7090;49.436;8.490;2023-07-20T07:41:38;24.00;1.00
14031;DHT22;7090;49.436;8.490;2023-07-20T07:44:04;25.10;1.00
14031;DHT22;7090;49.436;8.490;2023-07-20T07:46:30;25.40;1.00
14031;DHT22;7090;49.436;8.490;2023-07-20T07:48:55;24.80;1.00
14031;DHT22;7090;49.436;8.490;2023-07-20T07:51:21;24.10;1.00
14031;DHT22;7090;49.436;8.490;2023-07-20T07:53:47;24.90;1.00
14031;DHT22;7090;49.436;8.490;2023-07-20T07:56:14;24.70;1.00
14031;DHT22;7090;49.436;8.490;2023-07-20T07:58:40;23.80;1.00
14031;DHT22;7090;49.436;8.490;2023-07-20T08:01:06;24.50;1.00
14031;DHT22;7090;49.436;8.490;2023-07-20T08:03:31;25.10;1.00
14031;DHT22;7090;49.436;8.490;2023-07-20T08:05:57;24.80;1.00
14031;DHT22;7090;49.436;8.490;2023-07-20T08:08:24;24.80;1.00
14031;DHT22;7090;49.436;8.490;2023-07-20T08:10:52;25.40;1.00
14031;DHT22;7090;49.436;8.490;2023-07-20T08:13:18;25.80;1.00
14031;DHT22;7090;49.436;8.490;2023-07-20T08:15:49;25.20;1.00
14031;DHT22;7090;49.436;8.490;2023-07-20T08:18:16;25.50;1.00
14031;DHT22;7090;49.436;8.490;2023-07-20T08:20:44;25.40;1.00
14031;DHT22;7090;49.436;8.490;2023-07-20T08:23:09;25.00;1.00
14031;DHT22;7090;49.436;8.490;2023-07-20T08:25:38;24.90;1.00
14031;DHT22;7090;49.436;8.490;2023-07-20T08:28:07;23.70;1.00
14031;DHT22;7090;49.436;8.490;2023-07-20T08:30:41;24.30;1.00
14031;DHT22;7090;49.436;8.490;2023-07-20T08:33:07;25.30;1.00
14031;DHT22;7090;49.436;8.490;2023-07-20T08:35:33;26.20;1.00
14031;DHT22;7090;49.436;8.490;2023-07-20T08:37:59;26.40;1.00
14031;DHT22;7090;49.436;8.490;2023-07-20T08:40:24;26.70;1.00
14031;DHT22;7090;49.436;8.490;2023-07-20T08:42:50;27.40;1.00
14031;DHT22;7090;49.436;8.490;2023-07-20T08:45:16;27.90;1.00
14031;DHT22;7090;49.436;8.490;2023-07-20T08:47:43;28.30;1.00
14031;DHT22;7090;49.436;8.490;2023-07-20T08:50:11;28.30;1.00
14031;DHT22;7090;49.436;8.490;2023-07-20T08:52:38;27.40;1.00
14031;DHT22;7090;49.436;8.490;2023-07-20T08:55:04;26.50;1.00
14031;DHT22;7090;49.436;8.490;2023-07-20T08:57:33;26.40;1.00
14031;DHT22;7090;49.436;8.490;2023-07-20T09:00:01;26.90;1.00
14031;DHT22;7090;49.436;8.490;2023-07-20T09:02:31;25.50;1.00
14031;DHT22;7090;49.436;8.490;2023-07-20T09:04:58;26.40;1.00
14031;DHT22;7090;49.436;8.490;2023-07-20T09:07:24;27.10;1.00
14031;DHT22;7090;49.436;8.490;2023-07-20T09:09:50;27.20;1.00
14031;DHT22;7090;49.436;8.490;2023-07-20T09:12:16;27.40;1.00
14031;DHT22;7090;49.436;8.490;2023-07-20T09:14:44;28.10;1.00
14031;DHT22;7090;49.436;8.490;2023-07-20T09:17:14;27.80;1.00
14031;DHT22;7090;49.436;8.490;2023-07-20T09:19:47;28.20;1.00
14031;DHT22;7090;49.436;8.490;2023-07-20T09:22:13;28.20;1.00
14031;DHT22;7090;49.436;8.490;2023-07-20T09:24:39;27.70;1.00
14031;DHT22;7090;49.436;8.490;2023-07-20T09:27:04;28.00;1.00
14031;DHT22;7090;49.436;8.490;2023-07-20T09:29:30;28.20;1.00
14031;DHT22;7090;49.436;8.490;2023-07-20T09:32:01;27.20;1.00
14031;DHT22;7090;49.436;8.490;2023-07-20T09:34:28;26.50;1.00
14031;DHT22;7090;49.436;8.490;2023-07-20T09:36:53;27.90;1.00
14031;DHT22;7090;49.436;8.490;2023-07-20T09:39:20;28.00;1.00
14031;DHT22;7090;49.436;8.490;2023-07-20T09:41:45;26.90;1.00
14031;DHT22;7090;49.436;8.490;2023-07-20T09:44:12;27.10;1.00
14031;DHT22;7090;49.436;8.490;2023-07-20T09:46:46;27.70;1.00
14031;DHT22;7090;49.436;8.490;2023-07-20T09:49:12;28.40;1.00
14031;DHT22;7090;49.436;8.490;2023-07-20T09:51:38;29.40;1.00
14031;DHT22;7090;49.436;8.490;2023-07-20T09:54:04;28.70;1.00
14031;DHT22;7090;49.436;8.490;2023-07-20T09:56:30;28.80;1.00
14031;DHT22;7090;49.436;8.490;2023-07-20T09:58:57;29.80;1.00
14031;DHT22;7090;49.436;8.490;2023-07-20T10:01:23;30.20;1.00
14031;DHT22;7090;49.436;8.490;2023-07-20T10:03:51;30.40;1.00
14031;DHT22;7090;49.436;8.490;2023-07-20T10:06:22;30.70;1.00
14031;DHT22;7090;49.436;8.490;2023-07-20T10:08:55;30.50;1.00
14031;DHT22;7090;49.436;8.490;2023-07-20T10:11:22;30.30;1.00
14031;DHT22;7090;49.436;8.490;2023-07-20T10:13:53;30.30;1.00
14031;DHT22;7090;49.436;8.490;2023-07-20T10:16:28;30.40;1.00
14031;DHT22;7090;49.436;8.490;2023-07-20T10:19:17;30.30;1.00
14031;DHT22;7090;49.436;8.490;2023-07-20T10:21:55;30.70;1.00
14031;DHT22;7090;49.436;8.490;2023-07-20T10:24:23;30.70;1.00
14031;DHT22;7090;49.436;8.490;2023-07-20T10:26:50;30.20;1.00
14031;DHT22;7090;49.436;8.490;2023-07-20T10:29:15;29.90;1.00
14031;DHT22;7090;49.436;8.490;2023-07-20T10:31:42;29.30;1.00
14031;DHT22;7090;49.436;8.490;2023-07-20T10:34:08;29.40;1.00
14031;DHT22;7090;49.436;8.490;2023-07-20T10:36:44;29.40;1.00
14031;DHT22;7090;49.436;8.490;2023-07-20T10:41:50;28.90;1.00
14031;DHT22;7090;49.436;8.490;2023-07-20T10:44:19;29.10;1.00
14031;DHT22;7090;49.436;8.490;2023-07-20T10:46:46;29.60;1.00
14031;DHT22;7090;49.436;8.490;2023-07-20T10:49:13;28.40;1.00
14031;DHT22;7090;49.436;8.490;2023-07-20T10:51:41;29.40;1.00
14031;DHT22;7090;49.436;8.490;2023-07-20T10:56:42;30.60;1.00
14031;DHT22;7090;49.436;8.490;2023-07-20T11:02:06;29.50;1.00
14031;DHT22;7090;49.436;8.490;2023-07-20T11:04:43;28.80;1.00
14031;DHT22;7090;49.436;8.490;2023-07-20T11:07:09;29.40;1.00
14031;DHT22;7090;49.436;8.490;2023-07-20T11:09:39;29.90;1.00
14031;DHT22;7090;49.436;8.490;2023-07-20T11:12:14;29.10;1.00
14031;DHT22;7090;49.436;8.490;2023-07-20T11:14:53;29.40;1.00
14031;DHT22;7090;49.436;8.490;2023-07-20T11:17:19;29.70;1.00
14031;DHT22;7090;49.436;8.490;2023-07-20T11:19:55;28.90;1.00
14031;DHT22;7090;49.436;8.490;2023-07-20T11:22:21;29.20;1.00
14031;DHT22;7090;49.436;8.490;2023-07-20T11:24:47;28.70;1.00
14031;DHT22;7090;49.436;8.490;2023-07-20T11:27:14;28.20;1.00
14031;DHT22;7090;49.436;8.490;2023-07-20T11:29:40;29.20;1.00
14031;DHT22;7090;49.436;8.490;2023-07-20T11:32:06;29.40;1.00
14031;DHT22;7090;49.436;8.490;2023-07-20T11:34:33;27.70;1.00
14031;DHT22;7090;49.436;8.490;2023-07-20T11:36:59;28.20;1.00
14031;DHT22;7090;49.436;8.490;2023-07-20T11:39:25;28.70;1.00
14031;DHT22;7090;49.436;8.490;2023-07-20T11:41:53;29.20;1.00
14031;DHT22;7090;49.436;8.490;2023-07-20T11:44:23;29.40;1.00
14031;DHT22;7090;49.436;8.490;2023-07-20T11:47:07;30.50;1.00
14031;DHT22;7090;49.436;8.490;2023-07-20T11:49:37;29.50;1.00
14031;DHT22;7090;49.436;8.490;2023-07-20T11:52:11;28.60;1.00
14031;DHT22;7090;49.436;8.490;2023-07-20T11:54:39;28.90;1.00
14031;DHT22;7090;49.436;8.490;2023-07-20T11:57:05;30.10;1.00
14031;DHT22;7090;49.436;8.490;2023-07-20T11:59:31;30.40;1.00
14031;DHT22;7090;49.436;8.490;2023-07-20T12:01:57;31.50;1.00
14031;DHT22;7090;49.436;8.490;2023-07-20T12:04:23;30.90;1.00
14031;DHT22;7090;49.436;8.490;2023-07-20T12:06:53;29.30;1.00
14031;DHT22;7090;49.436;8.490;2023-07-20T12:09:20;28.80;1.00
14031;DHT22;7090;49.436;8.490;2023-07-20T12:11:49;28.80;1.00
14031;DHT22;7090;49.436;8.490;2023-07-20T12:14:15;28.20;1.00
14031;DHT22;7090;49.436;8.490;2023-07-20T12:16:40;28.10;1.00
14031;DHT22;7090;49.436;8.490;2023-07-20T12:19:13;27.70;1.00
14031;DHT22;7090;49.436;8.490;2023-07-20T12:21:41;27.20;1.00
14031;DHT22;7090;49.436;8.490;2023-07-20T12:24:08;27.10;1.00
14031;DHT22;7090;49.436;8.490;2023-07-20T12:26:37;27.40;1.00
14031;DHT22;7090;49.436;8.490;2023-07-20T12:29:04;27.20;1.00
14031;DHT22;7090;49.436;8.490;2023-07-20T12:31:30;27.20;1.00
14031;DHT22;7090;49.436;8.490;2023-07-20T12:33:56;27.10;1.00
14031;DHT22;7090;49.436;8.490;2023-07-20T12:36:22;26.80;1.00
14031;DHT22;7090;49.436;8.490;2023-07-20T12:38:48;26.70;1.00
14031;DHT22;7090;49.436;8.490;2023-07-20T12:41:14;26.20;1.00
14031;DHT22;7090;49.436;8.490;2023-07-20T12:43:40;26.60;1.00
14031;DHT22;7090;49.436;8.490;2023-07-20T12:46:06;27.60;1.00
14031;DHT22;7090;49.436;8.490;2023-07-20T12:48:32;28.40;1.00
14031;DHT22;7090;49.436;8.490;2023-07-20T12:50:58;28.60;1.00
14031;DHT22;7090;49.436;8.490;2023-07-20T12:53:24;29.10;1.00
14031;DHT22;7090;49.436;8.490;2023-07-20T12:55:49;29.50;1.00
14031;DHT22;7090;49.436;8.490;2023-07-20T12:58:15;29.70;1.00
14031;DHT22;7090;49.436;8.490;2023-07-20T13:00:41;30.30;1.00
14031;DHT22;7090;49.436;8.490;2023-07-20T13:03:07;30.10;1.00
14031;DHT22;7090;49.436;8.490;2023-07-20T13:05:34;30.80;1.00
14031;DHT22;7090;49.436;8.490;2023-07-20T13:08:01;30.70;1.00
14031;DHT22;7090;49.436;8.490;2023-07-20T13:10:27;31.00;1.00
14031;DHT22;7090;49.436;8.490;2023-07-20T13:12:54;31.80;1.00
14031;DHT22;7090;49.436;8.490;2023-07-20T13:15:23;32.20;1.00
14031;DHT22;7090;49.436;8.490;2023-07-20T13:17:49;32.20;1.00
14031;DHT22;7090;49.436;8.490;2023-07-20T13:20:16;29.90;1.00
14031;DHT22;7090;49.436;8.490;2023-07-20T13:22:41;29.60;1.00
14031;DHT22;7090;49.436;8.490;2023-07-20T13:25:08;30.10;1.00
14031;DHT22;7090;49.436;8.490;2023-07-20T13:27:34;29.50;1.00
14031;DHT22;7090;49.436;8.490;2023-07-20T13:30:00;28.80;1.00
14031;DHT22;7090;49.436;8.490;2023-07-20T13:32:26;28.70;1.00
14031;DHT22;7090;49.436;8.490;2023-07-20T13:34:52;27.70;1.00
14031;DHT22;7090;49.436;8.490;2023-07-20T13:37:18;27.70;1.00
14031;DHT22;7090;49.436;8.490;2023-07-20T13:39:43;28.60;1.00
14031;DHT22;7090;49.436;8.490;2023-07-20T13:42:09;29.80;1.00
14031;DHT22;7090;49.436;8.490;2023-07-20T13:44:36;30.40;1.00
14031;DHT22;7090;49.436;8.490;2023-07-20T13:47:03;30.60;1.00
14031;DHT22;7090;49.436;8.490;2023-07-20T13:49:30;30.60;1.00
14031;DHT22;7090;49.436;8.490;2023-07-20T13:51:56;30.90;1.00
14031;DHT22;7090;49.436;8.490;2023-07-20T13:54:23;31.00;1.00
14031;DHT22;7090;49.436;8.490;2023-07-20T13:56:49;28.80;1.00
14031;DHT22;7090;49.436;8.490;2023-07-20T13:59:14;28.40;1.00
14031;DHT22;7090;49.436;8.490;2023-07-20T14:01:40;29.00;1.00
14031;DHT22;7090;49.436;8.490;2023-07-20T14:04:05;28.90;1.00
14031;DHT22;7090;49.436;8.490;2023-07-20T14:06:32;29.50;1.00
14031;DHT22;7090;49.436;8.490;2023-07-20T14:08:58;29.30;1.00
14031;DHT22;7090;49.436;8.490;2023-07-20T14:11:24;28.60;1.00
14031;DHT22;7090;49.436;8.490;2023-07-20T14:13:50;28.50;1.00
14031;DHT22;7090;49.436;8.490;2023-07-20T14:16:18;27.90;1.00
14031;DHT22;7090;49.436;8.490;2023-07-20T14:18:43;28.00;1.00
14031;DHT22;7090;49.436;8.490;2023-07-20T14:21:12;27.80;1.00
14031;DHT22;7090;49.436;8.490;2023-07-20T14:23:38;27.40;1.00
14031;DHT22;7090;49.436;8.490;2023-07-20T14:26:03;27.60;1.00
14031;DHT22;7090;49.436;8.490;2023-07-20T14:28:34;28.20;1.00
14031;DHT22;7090;49.436;8.490;2023-07-20T14:31:00;28.60;1.00
14031;DHT22;7090;49.436;8.490;2023-07-20T14:33:25;28.70;1.00
14031;DHT22;7090;49.436;8.490;2023-07-20T14:35:51;29.00;1.00
14031;DHT22;7090;49.436;8.490;2023-07-20T14:38:16;30.20;1.00
14031;DHT22;7090;49.436;8.490;2023-07-20T14:40:42;31.00;1.00
14031;DHT22;7090;49.436;8.490;2023-07-20T14:43:08;31.50;1.00
14031;DHT22;7090;49.436;8.490;2023-07-20T14:45:34;32.00;1.00
14031;DHT22;7090;49.436;8.490;2023-07-20T14:48:00;32.50;1.00
14031;DHT22;7090;49.436;8.490;2023-07-20T14:50:26;32.70;1.00
14031;DHT22;7090;49.436;8.490;2023-07-20T14:52:51;32.70;1.00
14031;DHT22;7090;49.436;8.490;2023-07-20T14:55:17;32.70;1.00
14031;DHT22;7090;49.436;8.490;2023-07-20T14:57:43;32.40;1.00
14031;DHT22;7090;49.436;8.490;2023-07-20T15:00:09;32.00;1.00
14031;DHT22;7090;49.436;8.490;2023-07-20T15:02:38;31.40;1.00
14031;DHT22;7090;49.436;8.490;2023-07-20T15:05:08;30.70;1.00
14031;DHT22;7090;49.436;8.490;2023-07-20T15:07:34;29.80;1.00
14031;DHT22;7090;49.436;8.490;2023-07-20T15:10:00;28.20;1.00
14031;DHT22;7090;49.436;8.490;2023-07-20T15:12:26;27.90;1.00
14031;DHT22;7090;49.436;8.490;2023-07-20T15:17:34;27.50;1.00
14031;DHT22;7090;49.436;8.490;2023-07-20T15:20:01;27.50;1.00
14031;DHT22;7090;49.436;8.490;2023-07-20T15:22:30;27.30;1.00
14031;DHT22;7090;49.436;8.490;2023-07-20T15:24:56;26.70;1.00
14031;DHT22;7090;49.436;8.490;2023-07-20T15:27:21;26.70;1.00
14031;DHT22;7090;49.436;8.490;2023-07-20T15:29:48;26.20;1.00
14031;DHT22;7090;49.436;8.490;2023-07-20T15:32:14;26.50;1.00
14031;DHT22;7090;49.436;8.490;2023-07-20T15:34:42;26.70;1.00
14031;DHT22;7090;49.436;8.490;2023-07-20T15:37:09;26.80;1.00
14031;DHT22;7090;49.436;8.490;2023-07-20T15:39:35;26.80;1.00
14031;DHT22;7090;49.436;8.490;2023-07-20T15:42:01;26.80;1.00
14031;DHT22;7090;49.436;8.490;2023-07-20T15:44:27;26.60;1.00
14031;DHT22;7090;49.436;8.490;2023-07-20T15:46:52;26.70;1.00
14031;DHT22;7090;49.436;8.490;2023-07-20T15:49:18;26.70;1.00
14031;DHT22;7090;49.436;8.490;2023-07-20T15:51:44;26.50;1.00
14031;DHT22;7090;49.436;8.490;2023-07-20T15:54:12;27.00;1.00
14031;DHT22;7090;49.436;8.490;2023-07-20T15:56:39;27.80;1.00
14031;DHT22;7090;49.436;8.490;2023-07-20T15:59:05;28.40;1.00
14031;DHT22;7090;49.436;8.490;2023-07-20T16:01:31;28.60;1.00
14031;DHT22;7090;49.436;8.490;2023-07-20T16:03:58;28.90;1.00
14031;DHT22;7090;49.436;8.490;2023-07-20T16:06:24;28.90;1.00
14031;DHT22;7090;49.436;8.490;2023-07-20T16:08:50;28.80;1.00
14031;DHT22;7090;49.436;8.490;2023-07-20T16:11:19;28.90;1.00
14031;DHT22;7090;49.436;8.490;2023-07-20T16:13:46;29.00;1.00
14031;DHT22;7090;49.436;8.490;2023-07-20T16:16:12;28.60;1.00
14031;DHT22;7090;49.436;8.490;2023-07-20T16:18:38;28.70;1.00